Time,TemperatureF,DewpointF,PressureIn,WindDirection,WindDirectionDegrees,WindSpeedMPH,WindSpeedGustMPH,Humidity,HourlyPrecipIn,Conditions,Clouds,dailyrainin,SoftwareType,DateUTC
2013-05-26 00:01:00,61.0,42.0,-100.00,South,180,1.0,3.0,50,-99.99,,,-99.99,,2013-05-26 07:01:00,
2013-05-26 00:11:00,61.0,42.0,-100.00,South,180,1.0,3.0,50,-99.99,,,-99.99,,2013-05-26 07:11:00,
2013-05-26 00:21:00,60.0,41.0,-100.00,North,0,1.0,3.0,49,-99.99,,,-99.99,,2013-05-26 07:21:00,
2013-05-26 00:31:00,60.0,41.0,-100.00,North,0,1.0,3.0,49,-99.99,,,-99.99,,2013-05-26 07:31:00,
2013-05-26 00:42:00,60.0,41.0,-100.00,North,0,1.0,3.0,49,-99.99,,,-99.99,,2013-05-26 07:42:00,
2013-05-26 00:52:00,60.0,42.0,-100.00,West,270,0.0,1.0,52,-99.99,,,-99.99,,2013-05-26 07:52:00,
2013-05-26 01:01:00,59.0,43.0,-100.00,South,180,3.0,4.0,56,-99.99,,,-99.99,,2013-05-26 08:01:00,
2013-05-26 01:11:00,59.0,43.0,-100.00,South,180,3.0,4.0,56,-99.99,,,-99.99,,2013-05-26 08:11:00,
2013-05-26 01:21:00,57.0,45.0,-100.00,South,180,3.0,3.0,64,-99.99,,,-99.99,,2013-05-26 08:21:00,
2013-05-26 01:32:00,56.0,45.0,-100.00,SE,135,3.0,3.0,66,-99.99,,,-99.99,,2013-05-26 08:32:00,
2013-05-26 01:42:00,56.0,45.0,-100.00,SE,135,3.0,3.0,66,-99.99,,,-99.99,,2013-05-26 08:42:00,
2013-05-26 01:53:00,58.0,45.0,-100.00,SE,135,3.0,4.0,64,-99.99,,,-99.99,,2013-05-26 08:53:00,
2013-05-26 02:01:00,58.0,46.0,-100.00,North,0,3.0,3.0,65,-99.99,,,-99.99,,2013-05-26 09:01:00,
2013-05-26 02:11:00,58.0,46.0,-100.00,North,0,3.0,3.0,65,-99.99,,,-99.99,,2013-05-26 09:11:00,
2013-05-26 02:21:00,57.0,46.0,-100.00,South,180,1.0,2.0,65,-99.99,,,-99.99,,2013-05-26 09:21:00,
2013-05-26 02:33:00,57.0,45.0,-100.00,South,180,3.0,4.0,65,-99.99,,,-99.99,,2013-05-26 09:33:00,
2013-05-26 02:42:00,57.0,45.0,-100.00,South,180,3.0,4.0,65,-99.99,,,-99.99,,2013-05-26 09:42:00,
2013-05-26 02:53:00,57.0,45.0,-100.00,South,180,4.0,5.0,65,-99.99,,,-99.99,,2013-05-26 09:53:00,
2013-05-26 03:02:00,57.0,45.0,-100.00,South,180,3.0,4.0,64,-99.99,,,-99.99,,2013-05-26 10:02:00,
2013-05-26 03:12:00,57.0,45.0,-100.00,South,180,3.0,4.0,64,-99.99,,,-99.99,,2013-05-26 10:12:00,
2013-05-26 03:22:00,57.0,45.0,-100.00,SW,225,3.0,4.0,63,-99.99,,,-99.99,,2013-05-26 10:22:00,
2013-05-26 03:32:00,57.0,45.0,-100.00,North,0,3.0,4.0,64,-99.99,,,-99.99,,2013-05-26 10:32:00,
2013-05-26 03:42:00,57.0,45.0,-100.00,North,0,3.0,4.0,64,-99.99,,,-99.99,,2013-05-26 10:42:00,
2013-05-26 03:52:00,57.0,45.0,-100.00,SW,225,4.0,6.0,65,-99.99,,,-99.99,,2013-05-26 10:52:00,
2013-05-26 04:02:00,57.0,46.0,-100.00,SW,225,3.0,4.0,66,-99.99,,,-99.99,,2013-05-26 11:02:00,
2013-05-26 04:11:00,57.0,46.0,-100.00,SW,225,3.0,4.0,66,-99.99,,,-99.99,,2013-05-26 11:11:00,
2013-05-26 04:22:00,56.0,45.0,-100.00,SW,225,6.0,6.0,67,-99.99,,,-99.99,,2013-05-26 11:22:00,
2013-05-26 04:32:00,56.0,45.0,-100.00,SW,225,5.0,6.0,66,-99.99,,,-99.99,,2013-05-26 11:32:00,
2013-05-26 04:42:00,56.0,45.0,-100.00,SW,225,5.0,6.0,66,-99.99,,,-99.99,,2013-05-26 11:42:00,
2013-05-26 04:52:00,56.0,45.0,-100.00,North,0,5.0,6.0,67,-99.99,,,-99.99,,2013-05-26 11:52:00,
2013-05-26 05:01:00,56.0,47.0,-100.00,SW,225,6.0,6.0,71,-99.99,,,-99.99,,2013-05-26 12:01:00,
2013-05-26 05:11:00,56.0,47.0,-100.00,SW,225,6.0,6.0,71,-99.99,,,-99.99,,2013-05-26 12:11:00,
2013-05-26 05:21:00,55.0,47.0,-100.00,SW,225,6.0,8.0,72,-99.99,,,-99.99,,2013-05-26 12:21:00,
2013-05-26 05:32:00,55.0,47.0,-100.00,North,0,4.0,5.0,75,-99.99,,,-99.99,,2013-05-26 12:32:00,
2013-05-26 05:41:00,55.0,47.0,-100.00,North,0,4.0,5.0,75,-99.99,,,-99.99,,2013-05-26 12:41:00,
2013-05-26 05:52:00,55.0,48.0,-100.00,North,0,4.0,6.0,77,-99.99,,,-99.99,,2013-05-26 12:52:00,
2013-05-26 06:02:00,54.0,48.0,-100.00,SW,225,4.0,5.0,79,-99.99,,,-99.99,,2013-05-26 13:02:00,
2013-05-26 06:11:00,54.0,48.0,-100.00,SW,225,4.0,5.0,79,-99.99,,,-99.99,,2013-05-26 13:11:00,
2013-05-26 06:21:00,54.0,48.0,-100.00,South,180,0.0,1.0,81,-99.99,,,-99.99,,2013-05-26 13:21:00,
2013-05-26 06:32:00,54.0,49.0,-100.00,South,180,3.0,3.0,82,-99.99,,,-99.99,,2013-05-26 13:32:00,
2013-05-26 06:42:00,54.0,49.0,-100.00,South,180,3.0,3.0,82,-99.99,,,-99.99,,2013-05-26 13:42:00,
2013-05-26 06:52:00,54.0,49.0,-100.00,North,0,3.0,4.0,83,-99.99,,,-99.99,,2013-05-26 13:52:00,
2013-05-26 07:01:00,54.0,49.0,-100.00,SW,225,4.0,4.0,84,-99.99,,,-99.99,,2013-05-26 14:01:00,
2013-05-26 07:11:00,54.0,49.0,-100.00,SW,225,4.0,4.0,84,-99.99,,,-99.99,,2013-05-26 14:11:00,
2013-05-26 07:21:00,54.0,50.0,-100.00,SW,225,6.0,7.0,86,-99.99,,,-99.99,,2013-05-26 14:21:00,
2013-05-26 07:32:00,54.0,51.0,-100.00,West,270,6.0,7.0,88,-99.99,,,-99.99,,2013-05-26 14:32:00,
2013-05-26 07:41:00,54.0,51.0,-100.00,West,270,6.0,7.0,88,-99.99,,,-99.99,,2013-05-26 14:41:00,
2013-05-26 07:52:00,54.0,51.0,-100.00,North,0,3.0,4.0,88,-99.99,,,-99.99,,2013-05-26 14:52:00,
2013-05-26 08:01:00,55.0,51.0,-100.00,SW,225,6.0,8.0,88,-99.99,,,-99.99,,2013-05-26 15:01:00,
2013-05-26 08:12:00,55.0,51.0,-100.00,SW,225,6.0,8.0,88,-99.99,,,-99.99,,2013-05-26 15:12:00,
2013-05-26 08:22:00,55.0,52.0,-100.00,North,0,3.0,4.0,89,-99.99,,,-99.99,,2013-05-26 15:22:00,
2013-05-26 08:33:00,55.0,52.0,-100.00,North,0,2.0,3.0,89,-99.99,,,-99.99,,2013-05-26 15:33:00,
2013-05-26 08:43:00,55.0,52.0,-100.00,North,0,2.0,3.0,89,-99.99,,,-99.99,,2013-05-26 15:43:00,
2013-05-26 08:53:00,55.0,51.0,-100.00,West,270,3.0,5.0,88,-99.99,,,-99.99,,2013-05-26 15:53:00,
2013-05-26 09:03:00,55.0,52.0,-100.00,North,0,3.0,4.0,88,-99.99,,,-99.99,,2013-05-26 16:03:00,
2013-05-26 09:12:00,55.0,52.0,-100.00,North,0,3.0,4.0,88,-99.99,,,-99.99,,2013-05-26 16:12:00,
2013-05-26 09:23:00,55.0,52.0,-100.00,West,270,6.0,8.0,89,-99.99,,,-99.99,,2013-05-26 16:23:00,
2013-05-26 09:33:00,55.0,52.0,-100.00,SW,225,4.0,6.0,88,-99.99,,,-99.99,,2013-05-26 16:33:00,
2013-05-26 09:42:00,55.0,52.0,-100.00,SW,225,4.0,6.0,88,-99.99,,,-99.99,,2013-05-26 16:42:00,
2013-05-26 09:53:00,56.0,52.0,-100.00,North,0,4.0,5.0,88,-99.99,,,-99.99,,2013-05-26 16:53:00,
2013-05-26 10:02:00,56.0,52.0,-100.00,SW,225,3.0,4.0,87,-99.99,,,-99.99,,2013-05-26 17:02:00,
2013-05-26 10:11:00,56.0,52.0,-100.00,SW,225,3.0,4.0,87,-99.99,,,-99.99,,2013-05-26 17:11:00,
2013-05-26 10:22:00,56.0,52.0,-100.00,North,0,2.0,3.0,84,-99.99,,,-99.99,,2013-05-26 17:22:00,
2013-05-26 10:32:00,58.0,52.0,-100.00,North,0,3.0,4.0,81,-99.99,,,-99.99,,2013-05-26 17:32:00,
2013-05-26 10:42:00,58.0,52.0,-100.00,North,0,3.0,4.0,81,-99.99,,,-99.99,,2013-05-26 17:42:00,
2013-05-26 10:52:00,58.0,51.0,-100.00,North,0,4.0,7.0,78,-99.99,,,-99.99,,2013-05-26 17:52:00,
2013-05-26 11:01:00,59.0,51.0,-100.00,West,270,4.0,6.0,73,-99.99,,,-99.99,,2013-05-26 18:01:00,
2013-05-26 11:12:00,59.0,51.0,-100.00,West,270,4.0,6.0,73,-99.99,,,-99.99,,2013-05-26 18:12:00,
2013-05-26 11:21:00,59.0,50.0,-100.00,NW,315,4.0,6.0,72,-99.99,,,-99.99,,2013-05-26 18:21:00,
2013-05-26 11:31:00,60.0,51.0,-100.00,North,0,2.0,4.0,71,-99.99,,,-99.99,,2013-05-26 18:31:00,
2013-05-26 11:42:00,60.0,51.0,-100.00,North,0,2.0,4.0,71,-99.99,,,-99.99,,2013-05-26 18:42:00,
2013-05-26 11:52:00,62.0,50.0,-100.00,North,0,4.0,5.0,64,-99.99,,,-99.99,,2013-05-26 18:52:00,
2013-05-26 12:01:00,62.0,50.0,-100.00,North,0,4.0,5.0,64,-99.99,,,-99.99,,2013-05-26 19:01:00,
2013-05-26 12:11:00,62.0,50.0,-100.00,North,0,4.0,5.0,64,-99.99,,,-99.99,,2013-05-26 19:11:00,
2013-05-26 12:22:00,64.0,49.0,-100.00,NW,315,3.0,4.0,58,-99.99,,,-99.99,,2013-05-26 19:22:00,
2013-05-26 12:32:00,65.0,47.0,-100.00,North,0,1.0,2.0,52,-99.99,,,-99.99,,2013-05-26 19:32:00,
2013-05-26 12:42:00,65.0,47.0,-100.00,North,0,1.0,2.0,52,-99.99,,,-99.99,,2013-05-26 19:42:00,
2013-05-26 12:52:00,66.0,46.0,-100.00,North,0,4.0,9.0,47,-99.99,,,-99.99,,2013-05-26 19:52:00,
2013-05-26 13:02:00,67.0,44.0,-100.00,SW,225,5.0,8.0,44,-99.99,,,-99.99,,2013-05-26 20:02:00,
2013-05-26 13:11:00,67.0,44.0,-100.00,SW,225,5.0,8.0,44,-99.99,,,-99.99,,2013-05-26 20:11:00,
2013-05-26 13:21:00,69.0,44.0,-100.00,North,0,4.0,6.0,40,-99.99,,,-99.99,,2013-05-26 20:21:00,
2013-05-26 13:32:00,69.0,43.0,-100.00,North,0,8.0,10.0,39,-99.99,,,-99.99,,2013-05-26 20:32:00,
2013-05-26 13:41:00,69.0,43.0,-100.00,North,0,8.0,10.0,39,-99.99,,,-99.99,,2013-05-26 20:41:00,
2013-05-26 13:52:00,70.0,43.0,-100.00,North,0,7.0,9.0,38,-99.99,,,-99.99,,2013-05-26 20:52:00,
2013-05-26 14:01:00,70.0,41.0,-100.00,North,0,7.0,12.0,35,-99.99,,,-99.99,,2013-05-26 21:01:00,
2013-05-26 14:11:00,70.0,41.0,-100.00,North,0,7.0,12.0,35,-99.99,,,-99.99,,2013-05-26 21:11:00,
2013-05-26 14:22:00,71.0,42.0,-100.00,North,0,8.0,12.0,35,-99.99,,,-99.99,,2013-05-26 21:22:00,
2013-05-26 14:33:00,71.0,41.0,-100.00,West,270,6.0,10.0,34,-99.99,,,-99.99,,2013-05-26 21:33:00,
2013-05-26 14:43:00,71.0,41.0,-100.00,West,270,6.0,10.0,34,-99.99,,,-99.99,,2013-05-26 21:43:00,
2013-05-26 14:53:00,72.0,42.0,-100.00,SW,225,8.0,11.0,34,-99.99,,,-99.99,,2013-05-26 21:53:00,
2013-05-26 15:02:00,71.0,41.0,-100.00,SW,225,8.0,14.0,34,-99.99,,,-99.99,,2013-05-26 22:02:00,
2013-05-26 15:12:00,71.0,41.0,-100.00,SW,225,8.0,14.0,34,-99.99,,,-99.99,,2013-05-26 22:12:00,
2013-05-26 15:23:00,72.0,42.0,-100.00,North,0,6.0,9.0,33,-99.99,,,-99.99,,2013-05-26 22:23:00,
2013-05-26 15:33:00,72.0,41.0,-100.00,North,0,11.0,14.0,32,-99.99,,,-99.99,,2013-05-26 22:33:00,
2013-05-26 15:42:00,72.0,41.0,-100.00,North,0,11.0,14.0,32,-99.99,,,-99.99,,2013-05-26 22:42:00,
2013-05-26 15:53:00,71.0,41.0,-100.00,North,0,7.0,9.0,34,-99.99,,,-99.99,,2013-05-26 22:53:00,
2013-05-26 16:02:00,71.0,40.0,-100.00,North,0,11.0,17.0,33,-99.99,,,-99.99,,2013-05-26 23:02:00,
2013-05-26 16:11:00,71.0,40.0,-100.00,North,0,11.0,17.0,33,-99.99,,,-99.99,,2013-05-26 23:11:00,
2013-05-26 16:22:00,71.0,41.0,-100.00,North,0,8.0,13.0,34,-99.99,,,-99.99,,2013-05-26 23:22:00,
2013-05-26 16:32:00,71.0,41.0,-100.00,North,0,6.0,11.0,33,-99.99,,,-99.99,,2013-05-26 23:32:00,
2013-05-26 16:43:00,71.0,41.0,-100.00,North,0,6.0,11.0,33,-99.99,,,-99.99,,2013-05-26 23:43:00,
2013-05-26 16:52:00,70.0,41.0,-100.00,North,0,9.0,12.0,34,-99.99,,,-99.99,,2013-05-26 23:52:00,
2013-05-26 17:02:00,71.0,41.0,-100.00,North,0,8.0,16.0,34,-99.99,,,-99.99,,2013-05-27 00:02:00,
2013-05-26 17:11:00,71.0,41.0,-100.00,North,0,8.0,16.0,34,-99.99,,,-99.99,,2013-05-27 00:11:00,
2013-05-26 17:21:00,71.0,41.0,-100.00,North,0,10.0,12.0,34,-99.99,,,-99.99,,2013-05-27 00:21:00,
2013-05-26 17:31:00,71.0,41.0,-100.00,North,0,10.0,12.0,34,-99.99,,,-99.99,,2013-05-27 00:31:00,
2013-05-26 17:41:00,71.0,41.0,-100.00,North,0,10.0,12.0,34,-99.99,,,-99.99,,2013-05-27 00:41:00,
2013-05-26 17:52:00,70.0,40.0,-100.00,North,0,8.0,12.0,34,-99.99,,,-99.99,,2013-05-27 00:52:00,
2013-05-26 18:01:00,70.0,40.0,-100.00,North,0,13.0,18.0,34,-99.99,,,-99.99,,2013-05-27 01:01:00,
2013-05-26 18:11:00,70.0,40.0,-100.00,North,0,13.0,18.0,34,-99.99,,,-99.99,,2013-05-27 01:11:00,
2013-05-26 18:22:00,70.0,41.0,-100.00,North,0,11.0,16.0,35,-99.99,,,-99.99,,2013-05-27 01:22:00,
2013-05-26 18:31:00,69.0,40.0,-100.00,North,0,11.0,19.0,35,-99.99,,,-99.99,,2013-05-27 01:31:00,
2013-05-26 18:42:00,69.0,40.0,-100.00,North,0,11.0,19.0,35,-99.99,,,-99.99,,2013-05-27 01:42:00,
2013-05-26 18:52:00,70.0,40.0,-100.00,West,270,9.0,15.0,34,-99.99,,,-99.99,,2013-05-27 01:52:00,
2013-05-26 19:01:00,68.0,40.0,-100.00,North,0,9.0,14.0,35,-99.99,,,-99.99,,2013-05-27 02:01:00,
2013-05-26 19:11:00,68.0,40.0,-100.00,North,0,9.0,14.0,35,-99.99,,,-99.99,,2013-05-27 02:11:00,
2013-05-26 19:21:00,68.0,40.0,-100.00,SW,225,11.0,14.0,36,-99.99,,,-99.99,,2013-05-27 02:21:00,
2013-05-26 19:32:00,68.0,40.0,-100.00,North,0,11.0,16.0,36,-99.99,,,-99.99,,2013-05-27 02:32:00,
2013-05-26 19:42:00,68.0,40.0,-100.00,North,0,11.0,16.0,36,-99.99,,,-99.99,,2013-05-27 02:42:00,
2013-05-26 19:52:00,67.0,39.0,-100.00,SW,225,7.0,11.0,36,-99.99,,,-99.99,,2013-05-27 02:52:00,
2013-05-26 20:02:00,67.0,40.0,-100.00,North,0,8.0,13.0,38,-99.99,,,-99.99,,2013-05-27 03:02:00,
2013-05-26 20:11:00,67.0,40.0,-100.00,North,0,8.0,13.0,38,-99.99,,,-99.99,,2013-05-27 03:11:00,
2013-05-26 20:21:00,65.0,40.0,-100.00,North,0,11.0,13.0,39,-99.99,,,-99.99,,2013-05-27 03:21:00,
2013-05-26 20:33:00,65.0,40.0,-100.00,North,0,10.0,14.0,40,-99.99,,,-99.99,,2013-05-27 03:33:00,
2013-05-26 20:42:00,65.0,40.0,-100.00,North,0,10.0,14.0,40,-99.99,,,-99.99,,2013-05-27 03:42:00,
2013-05-26 20:53:00,64.0,40.0,-100.00,SW,225,9.0,11.0,40,-99.99,,,-99.99,,2013-05-27 03:53:00,
2013-05-26 21:02:00,62.0,39.0,-100.00,SW,225,8.0,9.0,42,-99.99,,,-99.99,,2013-05-27 04:02:00,
2013-05-26 21:12:00,62.0,39.0,-100.00,SW,225,8.0,9.0,42,-99.99,,,-99.99,,2013-05-27 04:12:00,
2013-05-26 21:23:00,62.0,40.0,-100.00,North,0,8.0,9.0,44,-99.99,,,-99.99,,2013-05-27 04:23:00,
2013-05-26 21:33:00,61.0,40.0,-100.00,SW,225,6.0,8.0,45,-99.99,,,-99.99,,2013-05-27 04:33:00,
2013-05-26 21:42:00,61.0,40.0,-100.00,SW,225,6.0,8.0,45,-99.99,,,-99.99,,2013-05-27 04:42:00,
2013-05-26 21:52:00,61.0,40.0,-100.00,SW,225,6.0,8.0,45,-99.99,,,-99.99,,2013-05-27 04:52:00,
2013-05-26 22:02:00,60.0,41.0,-100.00,SW,225,6.0,9.0,49,-99.99,,,-99.99,,2013-05-27 05:02:00,
2013-05-26 22:12:00,60.0,41.0,-100.00,SW,225,6.0,9.0,49,-99.99,,,-99.99,,2013-05-27 05:12:00,
2013-05-26 22:22:00,60.0,41.0,-100.00,SW,225,6.0,8.0,48,-99.99,,,-99.99,,2013-05-27 05:22:00,
2013-05-26 22:32:00,60.0,40.0,-100.00,SW,225,7.0,9.0,48,-99.99,,,-99.99,,2013-05-27 05:32:00,
2013-05-26 22:42:00,60.0,40.0,-100.00,SW,225,7.0,9.0,48,-99.99,,,-99.99,,2013-05-27 05:42:00,
2013-05-26 22:52:00,59.0,41.0,-100.00,SW,225,5.0,6.0,50,-99.99,,,-99.99,,2013-05-27 05:52:00,
2013-05-26 23:01:00,59.0,40.0,-100.00,SW,225,4.0,6.0,49,-99.99,,,-99.99,,2013-05-27 06:01:00,
2013-05-26 23:11:00,59.0,40.0,-100.00,SW,225,4.0,6.0,49,-99.99,,,-99.99,,2013-05-27 06:11:00,
2013-05-26 23:21:00,59.0,41.0,-100.00,SW,225,5.0,6.0,53,-99.99,,,-99.99,,2013-05-27 06:21:00,
2013-05-26 23:32:00,58.0,41.0,-100.00,North,0,4.0,6.0,53,-99.99,,,-99.99,,2013-05-27 06:32:00,
2013-05-26 23:41:00,58.0,41.0,-100.00,North,0,4.0,6.0,53,-99.99,,,-99.99,,2013-05-27 06:41:00,
2013-05-26 23:52:00,58.0,41.0,-100.00,North,0,5.0,7.0,54,-99.99,,,-99.99,,2013-05-27 06:52:00,